Eihoumaru No.65 — JD3328 — position and weather

sailwx.info

Track history (hours):
 
Tides and Currents Weather Stations Pressure Air Temp Water Temp Dewpoint Dewpoint Depression Visibility Wind Speed Wind Dir Waves Ship Positions

Eihoumaru No.65

Last reported at 2017-Dec-11 17:00 UTC. Time now 2017-Dec-11 19:13 UTC.
Position N 34°02' E 131°42'.

Length 62 m; draft 4 m.

Type: Tanker. MMSI: 431003364.

Date/timePositionNaut miles runAvg speedWind from/ knotsBaromVisibWave heightAir tempDewpointWater temp
2017-Dec-11 17:00N 34°02' E 131°42'0 0.0
2017-Dec-11 16:29N 34°02' E 131°42'0 0.0
2017-Dec-11 15:06N 34°02' E 131°42'0 0.3
2017-Dec-11 14:45N 34°02' E 131°42'2 7.0
2017-Dec-11 14:30N 34°01' E 131°41'28 8.9
2017-Dec-11 11:23N 33°33' E 131°47'1110.4
2017-Dec-11 10:18N 33°22' E 131°43'411.5
2017-Dec-11 09:56N 33°19' E 131°41'3 0.3
2017-Dec-11 00:24N 33°16' E 131°40'3 0.5
2017-Dec-10 16:57N 33°15' E 131°36'0 0.0
2017-Dec-10 16:29N 33°15' E 131°36'0 0.0
2017-Dec-10 15:59N 33°15' E 131°36'0 0.0
2017-Dec-10 15:29N 33°15' E 131°36'0 0.0
2017-Dec-10 14:56N 33°15' E 131°36'0 0.0
2017-Dec-10 14:30N 33°15' E 131°36'0 0.0
2017-Dec-10 13:42N 33°15' E 131°36'0 0.0
2017-Dec-10 13:18N 33°15' E 131°36'0 0.0
2017-Dec-10 12:59N 33°15' E 131°36'0 0.0
2017-Dec-10 12:30N 33°15' E 131°36'0 0.0
2017-Dec-10 11:59N 33°15' E 131°36'0 0.0
2017-Dec-10 11:29N 33°15' E 131°36'0 0.0
2017-Dec-10 11:00N 33°15' E 131°36'0 0.0
2017-Dec-10 10:30N 33°15' E 131°36'0 0.0
2017-Dec-10 10:00N 33°15' E 131°36'0 0.0
2017-Dec-10 09:30N 33°15' E 131°36'0 0.0
2017-Dec-10 08:58N 33°15' E 131°36'0 0.0
2017-Dec-10 08:29N 33°15' E 131°36'0 0.0
2017-Dec-10 08:00N 33°15' E 131°36'0 0.0
2017-Dec-10 07:27N 33°15' E 131°36'0 0.0
2017-Dec-10 06:33N 33°15' E 131°36'0 0.0
2017-Dec-10 06:29N 33°15' E 131°36'0 0.0
2017-Dec-10 05:48N 33°15' E 131°36'0 0.0
2017-Dec-10 05:28N 33°15' E 131°36'0 0.0
2017-Dec-10 05:00N 33°15' E 131°36'0 0.0
2017-Dec-10 04:30N 33°15' E 131°36'0 0.0
2017-Dec-10 03:59N 33°15' E 131°36'0 0.0
2017-Dec-10 01:34N 33°15' E 131°36'0 0.0
2017-Dec-09 23:42N 33°15' E 131°36'0 0.0
2017-Dec-09 23:28N 33°15' E 131°36'0 0.0
2017-Dec-09 23:00N 33°15' E 131°36'3 5.5
2017-Dec-09 22:30N 33°18' E 131°37'5 9.5
2017-Dec-09 22:00N 33°22' E 131°40'0 0.0
2017-Dec-09 21:28N 33°22' E 131°40'0 0.1
2017-Dec-09 21:00N 33°22' E 131°40'0 0.1
2017-Dec-09 20:30N 33°22' E 131°40'0 0.0
2017-Dec-09 19:57N 33°22' E 131°40'0 0.1
2017-Dec-09 19:30N 33°22' E 131°40'0 0.1
2017-Dec-09 19:00N 33°22' E 131°40'0 0.0
2017-Dec-09 18:30N 33°22' E 131°40'0 0.0
2017-Dec-09 18:00N 33°22' E 131°40'0 0.0
2017-Dec-09 17:30N 33°22' E 131°40'0 0.1
2017-Dec-09 16:59N 33°22' E 131°40'0 0.0
2017-Dec-09 16:28N 33°22' E 131°40'0 0.0
2017-Dec-09 15:58N 33°22' E 131°40'0 0.1
2017-Dec-09 15:29N 33°22' E 131°40'0 0.0
2017-Dec-09 14:58N 33°22' E 131°40'0 0.1
2017-Dec-09 14:26N 33°22' E 131°40'0 0.0
2017-Dec-09 13:54N 33°22' E 131°40'0 0.0
2017-Dec-09 13:29N 33°22' E 131°40'0 0.0
2017-Dec-09 13:00N 33°22' E 131°40'0 0.1
2017-Dec-09 12:30N 33°22' E 131°40'0 0.1
2017-Dec-09 11:54N 33°22' E 131°40'0 0.1
2017-Dec-09 11:23N 33°22' E 131°40'0 0.1
2017-Dec-09 10:56N 33°22' E 131°40'0 0.1
2017-Dec-09 10:30N 33°22' E 131°40'0 0.0
2017-Dec-09 09:55N 33°22' E 131°40'0 0.0
2017-Dec-09 09:28N 33°22' E 131°40'0 0.0
2017-Dec-09 08:59N 33°22' E 131°40'0 0.0
2017-Dec-09 08:29N 33°22' E 131°40'0 0.0
2017-Dec-09 07:48N 33°22' E 131°40'0 0.1
2017-Dec-09 07:25N 33°22' E 131°40'511.7
2017-Dec-09 07:00N 33°25' E 131°45'812.9
2017-Dec-09 06:25N 33°30' E 131°51'912.1
2017-Dec-09 05:42N 33°37' E 131°58'1012.4
2017-Dec-09 04:53N 33°45' E 132°05'811.9
2017-Dec-09 04:14N 33°52' E 132°10'312.5
2017-Dec-09 04:00N 33°54' E 132°09'710.5
2017-Dec-09 03:19N 34°01' E 132°14'412.5
2017-Dec-09 03:00N 34°04' E 132°16'612.0
2017-Dec-09 02:30N 34°10' E 132°17'4 8.1
2017-Dec-09 02:00N 34°14' E 132°15'0 0.0
2017-Dec-09 01:30N 34°14' E 132°15'1 2.7
2017-Dec-09 01:00N 34°14' E 132°14'0 0.0
2017-Dec-09 00:30N 34°14' E 132°14'0 0.0
2017-Dec-09 00:00N 34°14' E 132°14'0 0.0
2017-Dec-08 23:30N 34°14' E 132°14'0 0.0
2017-Dec-08 23:00N 34°14' E 132°14'0 0.5
2017-Dec-08 22:30N 34°14' E 132°14'0 0.8
2017-Dec-08 22:00N 34°14' E 132°14'0 0.0
2017-Dec-08 21:30N 34°14' E 132°14'0 0.0
2017-Dec-08 21:00N 34°14' E 132°14'0 0.0
2017-Dec-08 20:30N 34°14' E 132°14'0 0.0
2017-Dec-08 20:00N 34°14' E 132°14'0 0.0
2017-Dec-08 19:30N 34°14' E 132°14'0 0.0
2017-Dec-08 19:00N 34°14' E 132°14'0 0.0
2017-Dec-08 18:30N 34°14' E 132°14'0 0.0
2017-Dec-08 18:00N 34°14' E 132°14'0 0.0
2017-Dec-08 17:30N 34°14' E 132°14'0 0.0
2017-Dec-08 17:00N 34°14' E 132°14'0 0.0
2017-Dec-08 16:30N 34°14' E 132°14'0 0.0
2017-Dec-08 16:00N 34°14' E 132°14'0 0.0
2017-Dec-08 15:30N 34°14' E 132°14'0 0.0
2017-Dec-08 15:00N 34°14' E 132°14'0 0.0
2017-Dec-08 14:30N 34°14' E 132°14'0 0.0
2017-Dec-08 14:00N 34°14' E 132°14'0 0.0
2017-Dec-08 13:30N 34°14' E 132°14'0 0.0
2017-Dec-08 13:00N 34°14' E 132°14'0 0.0
2017-Dec-08 12:30N 34°14' E 132°14'0 0.0
2017-Dec-08 12:00N 34°14' E 132°14'0 0.0
2017-Dec-08 11:30N 34°14' E 132°14'0 0.0
2017-Dec-08 11:00N 34°14' E 132°14'0 0.0
2017-Dec-08 10:30N 34°14' E 132°14'0 0.0
2017-Dec-08 10:00N 34°14' E 132°14'0 0.0
2017-Dec-08 09:30N 34°14' E 132°14'0 0.0
2017-Dec-08 09:00N 34°14' E 132°14'0 0.0
2017-Dec-08 08:30N 34°14' E 132°14'0 0.6
2017-Dec-08 08:00N 34°14' E 132°15'611.0
2017-Dec-08 07:29N 34°10' E 132°19'611.7
2017-Dec-08 07:00N 34°06' E 132°25'711.1
2017-Dec-08 06:24N 34°02' E 132°31'511.7
2017-Dec-08 06:00N 34°04' E 132°36'8910.8
2017-Dec-07 21:50N 34°22' E 134°21'411.6
2017-Dec-07 21:30N 34°20' E 134°25'611.2
2017-Dec-07 21:00N 34°18' E 134°31'611.2
2017-Dec-07 20:28N 34°15' E 134°38'5 9.6
2017-Dec-07 19:57N 34°11' E 134°42'4 9.9
2017-Dec-07 19:30N 34°08' E 134°45'5 9.9
2017-Dec-07 19:00N 34°04' E 134°49'5 9.5
2017-Dec-07 18:28N 34°01' E 134°53'4 8.5
2017-Dec-07 18:00N 33°58' E 134°56'162 9.2
2017-Dec-07 00:25N 34°33' E 138°08'4 9.4
2017-Dec-06 23:58N 34°33' E 138°13'510.4
2017-Dec-06 23:30N 34°33' E 138°19'610.4
2017-Dec-06 22:58N 34°34' E 138°25'510.5
2017-Dec-06 22:30N 34°34' E 138°31'6 9.7
2017-Dec-06 21:52N 34°34' E 138°39'4 9.9
2017-Dec-06 21:29N 34°34' E 138°43'510.1
2017-Dec-06 21:00N 34°34' E 138°49'  
2017-Dec-04 10:30N 35°08' E 139°45'612.0
2017-Dec-04 10:00N 35°14' E 139°46'612.3
2017-Dec-04 09:30N 35°20' E 139°43'511.0
2017-Dec-04 09:00N 35°25' E 139°44'611.4
2017-Dec-04 08:30N 35°28' E 139°50'5 9.2
2017-Dec-04 08:00N 35°29' E 139°55'0 0.1
2017-Dec-04 07:30N 35°29' E 139°55'0 0.0
2017-Dec-04 07:00N 35°29' E 139°55'0 0.0
2017-Dec-04 06:30N 35°29' E 139°55'0 0.0
2017-Dec-04 06:00N 35°29' E 139°55'0 0.0
2017-Dec-04 05:30N 35°29' E 139°55'4 7.7
2017-Dec-04 05:00N 35°29' E 139°60'1 2.4
2017-Dec-04 04:30N 35°28' E 140°01'0 0.0
2017-Dec-04 03:59N 35°28' E 140°01'0 0.0
2017-Dec-04 03:30N 35°28' E 140°01'0 0.0
2017-Dec-04 03:00N 35°28' E 140°01'0 0.0
2017-Dec-04 02:30N 35°28' E 140°01'0 0.0
2017-Dec-04 02:00N 35°28' E 140°01'0 0.0
2017-Dec-04 01:30N 35°28' E 140°01'0 0.0
2017-Dec-04 01:00N 35°28' E 140°01'0 0.0
2017-Dec-04 00:30N 35°28' E 140°01'2 3.4
2017-Dec-04 00:00N 35°30' E 139°60'4 8.6
2017-Dec-03 23:30N 35°34' E 139°59'6 0.3
2017-Dec-02 23:28N 35°41' E 139°59'3 5.9
2017-Dec-02 23:00N 35°38' E 139°59'1 1.6
2017-Dec-02 22:30N 35°37' E 139°59'0 0.0
2017-Dec-02 22:00N 35°37' E 139°59'0 0.0
2017-Dec-02 21:29N 35°37' E 139°59'0 0.0
2017-Dec-02 21:00N 35°37' E 139°59'0 0.0
2017-Dec-02 20:30N 35°37' E 139°59'0 0.0
2017-Dec-02 20:00N 35°37' E 139°59'0 0.1
2017-Dec-02 19:30N 35°37' E 139°59'510.7
2017-Dec-02 19:00N 35°33' E 139°55'612.2
2017-Dec-02 18:30N 35°28' E 139°51'612.1
2017-Dec-02 18:01N 35°23' E 139°46'611.6
2017-Dec-02 17:30N 35°17' E 139°45'612.1
2017-Dec-02 17:00N 35°11' E 139°47'612.0
2017-Dec-02 16:30N 35°05' E 139°45'612.2
2017-Dec-02 16:00N 34°60' E 139°44'711.4
2017-Dec-02 15:23N 34°53' E 139°48'811.3
2017-Dec-02 14:39N 34°54' E 139°58'211.9
2017-Dec-02 14:29N 34°55' E 139°60'612.1
2017-Dec-02 14:00N 34°58' E 140°06'  
Track history (hours):
 
Tides and Currents Weather Stations Pressure Air Temp Water Temp Dewpoint Dewpoint Depression Visibility Wind Speed Wind Dir Waves Ship Positions

Eihoumaru No.65

Last reported at 2017-Dec-11 17:00 UTC. Time now 2017-Dec-11 19:13 UTC.
Position N 34°02' E 131°42'.

Length 62 m; draft 4 m.

Type: Tanker. MMSI: 431003364.

Date/timePositionNaut miles runAvg speedWind from/ knotsBaromVisibWave heightAir tempDewpointWater temp
2017-Dec-11 17:00N 34°02' E 131°42'0 0.0
2017-Dec-11 16:29N 34°02' E 131°42'0 0.0
2017-Dec-11 15:06N 34°02' E 131°42'0 0.3
2017-Dec-11 14:45N 34°02' E 131°42'2 7.0
2017-Dec-11 14:30N 34°01' E 131°41'28 8.9
2017-Dec-11 11:23N 33°33' E 131°47'1110.4
2017-Dec-11 10:18N 33°22' E 131°43'411.5
2017-Dec-11 09:56N 33°19' E 131°41'3 0.3
2017-Dec-11 00:24N 33°16' E 131°40'3 0.5
2017-Dec-10 16:57N 33°15' E 131°36'0 0.0
2017-Dec-10 16:29N 33°15' E 131°36'0 0.0
2017-Dec-10 15:59N 33°15' E 131°36'0 0.0
2017-Dec-10 15:29N 33°15' E 131°36'0 0.0
2017-Dec-10 14:56N 33°15' E 131°36'0 0.0
2017-Dec-10 14:30N 33°15' E 131°36'0 0.0
2017-Dec-10 13:42N 33°15' E 131°36'0 0.0
2017-Dec-10 13:18N 33°15' E 131°36'0 0.0
2017-Dec-10 12:59N 33°15' E 131°36'0 0.0
2017-Dec-10 12:30N 33°15' E 131°36'0 0.0
2017-Dec-10 11:59N 33°15' E 131°36'0 0.0
2017-Dec-10 11:29N 33°15' E 131°36'0 0.0
2017-Dec-10 11:00N 33°15' E 131°36'0 0.0
2017-Dec-10 10:30N 33°15' E 131°36'0 0.0
2017-Dec-10 10:00N 33°15' E 131°36'0 0.0
2017-Dec-10 09:30N 33°15' E 131°36'0 0.0
2017-Dec-10 08:58N 33°15' E 131°36'0 0.0
2017-Dec-10 08:29N 33°15' E 131°36'0 0.0
2017-Dec-10 08:00N 33°15' E 131°36'0 0.0
2017-Dec-10 07:27N 33°15' E 131°36'0 0.0
2017-Dec-10 06:33N 33°15' E 131°36'0 0.0
2017-Dec-10 06:29N 33°15' E 131°36'0 0.0
2017-Dec-10 05:48N 33°15' E 131°36'0 0.0
2017-Dec-10 05:28N 33°15' E 131°36'0 0.0
2017-Dec-10 05:00N 33°15' E 131°36'0 0.0
2017-Dec-10 04:30N 33°15' E 131°36'0 0.0
2017-Dec-10 03:59N 33°15' E 131°36'0 0.0
2017-Dec-10 01:34N 33°15' E 131°36'0 0.0
2017-Dec-09 23:42N 33°15' E 131°36'0 0.0
2017-Dec-09 23:28N 33°15' E 131°36'0 0.0
2017-Dec-09 23:00N 33°15' E 131°36'3 5.5
2017-Dec-09 22:30N 33°18' E 131°37'5 9.5
2017-Dec-09 22:00N 33°22' E 131°40'0 0.0
2017-Dec-09 21:28N 33°22' E 131°40'0 0.1
2017-Dec-09 21:00N 33°22' E 131°40'0 0.1
2017-Dec-09 20:30N 33°22' E 131°40'0 0.0
2017-Dec-09 19:57N 33°22' E 131°40'0 0.1
2017-Dec-09 19:30N 33°22' E 131°40'0 0.1
2017-Dec-09 19:00N 33°22' E 131°40'0 0.0
2017-Dec-09 18:30N 33°22' E 131°40'0 0.0
2017-Dec-09 18:00N 33°22' E 131°40'0 0.0
2017-Dec-09 17:30N 33°22' E 131°40'0 0.1
2017-Dec-09 16:59N 33°22' E 131°40'0 0.0
2017-Dec-09 16:28N 33°22' E 131°40'0 0.0
2017-Dec-09 15:58N 33°22' E 131°40'0 0.1
2017-Dec-09 15:29N 33°22' E 131°40'0 0.0
2017-Dec-09 14:58N 33°22' E 131°40'0 0.1
2017-Dec-09 14:26N 33°22' E 131°40'0 0.0
2017-Dec-09 13:54N 33°22' E 131°40'0 0.0
2017-Dec-09 13:29N 33°22' E 131°40'0 0.0
2017-Dec-09 13:00N 33°22' E 131°40'0 0.1
2017-Dec-09 12:30N 33°22' E 131°40'0 0.1
2017-Dec-09 11:54N 33°22' E 131°40'0 0.1
2017-Dec-09 11:23N 33°22' E 131°40'0 0.1
2017-Dec-09 10:56N 33°22' E 131°40'0 0.1
2017-Dec-09 10:30N 33°22' E 131°40'0 0.0
2017-Dec-09 09:55N 33°22' E 131°40'0 0.0
2017-Dec-09 09:28N 33°22' E 131°40'0 0.0
2017-Dec-09 08:59N 33°22' E 131°40'0 0.0
2017-Dec-09 08:29N 33°22' E 131°40'0 0.0
2017-Dec-09 07:48N 33°22' E 131°40'0 0.1
2017-Dec-09 07:25N 33°22' E 131°40'511.7
2017-Dec-09 07:00N 33°25' E 131°45'812.9
2017-Dec-09 06:25N 33°30' E 131°51'912.1
2017-Dec-09 05:42N 33°37' E 131°58'1012.4
2017-Dec-09 04:53N 33°45' E 132°05'811.9
2017-Dec-09 04:14N 33°52' E 132°10'312.5
2017-Dec-09 04:00N 33°54' E 132°09'710.5
2017-Dec-09 03:19N 34°01' E 132°14'412.5
2017-Dec-09 03:00N 34°04' E 132°16'612.0
2017-Dec-09 02:30N 34°10' E 132°17'4 8.1
2017-Dec-09 02:00N 34°14' E 132°15'0 0.0
2017-Dec-09 01:30N 34°14' E 132°15'1 2.7
2017-Dec-09 01:00N 34°14' E 132°14'0 0.0
2017-Dec-09 00:30N 34°14' E 132°14'0 0.0
2017-Dec-09 00:00N 34°14' E 132°14'0 0.0
2017-Dec-08 23:30N 34°14' E 132°14'0 0.0
2017-Dec-08 23:00N 34°14' E 132°14'0 0.5
2017-Dec-08 22:30N 34°14' E 132°14'0 0.8
2017-Dec-08 22:00N 34°14' E 132°14'0 0.0
2017-Dec-08 21:30N 34°14' E 132°14'0 0.0
2017-Dec-08 21:00N 34°14' E 132°14'0 0.0
2017-Dec-08 20:30N 34°14' E 132°14'0 0.0
2017-Dec-08 20:00N 34°14' E 132°14'0 0.0
2017-Dec-08 19:30N 34°14' E 132°14'0 0.0
2017-Dec-08 19:00N 34°14' E 132°14'0 0.0
2017-Dec-08 18:30N 34°14' E 132°14'0 0.0
2017-Dec-08 18:00N 34°14' E 132°14'0 0.0
2017-Dec-08 17:30N 34°14' E 132°14'0 0.0
2017-Dec-08 17:00N 34°14' E 132°14'0 0.0
2017-Dec-08 16:30N 34°14' E 132°14'0 0.0
2017-Dec-08 16:00N 34°14' E 132°14'0 0.0
2017-Dec-08 15:30N 34°14' E 132°14'0 0.0
2017-Dec-08 15:00N 34°14' E 132°14'0 0.0
2017-Dec-08 14:30N 34°14' E 132°14'0 0.0
2017-Dec-08 14:00N 34°14' E 132°14'0 0.0
2017-Dec-08 13:30N 34°14' E 132°14'0 0.0
2017-Dec-08 13:00N 34°14' E 132°14'0 0.0
2017-Dec-08 12:30N 34°14' E 132°14'0 0.0
2017-Dec-08 12:00N 34°14' E 132°14'0 0.0
2017-Dec-08 11:30N 34°14' E 132°14'0 0.0
2017-Dec-08 11:00N 34°14' E 132°14'0 0.0
2017-Dec-08 10:30N 34°14' E 132°14'0 0.0
2017-Dec-08 10:00N 34°14' E 132°14'0 0.0
2017-Dec-08 09:30N 34°14' E 132°14'0 0.0
2017-Dec-08 09:00N 34°14' E 132°14'0 0.0
2017-Dec-08 08:30N 34°14' E 132°14'0 0.6
2017-Dec-08 08:00N 34°14' E 132°15'611.0
2017-Dec-08 07:29N 34°10' E 132°19'611.7
2017-Dec-08 07:00N 34°06' E 132°25'711.1
2017-Dec-08 06:24N 34°02' E 132°31'511.7
2017-Dec-08 06:00N 34°04' E 132°36'8910.8
2017-Dec-07 21:50N 34°22' E 134°21'411.6
2017-Dec-07 21:30N 34°20' E 134°25'611.2
2017-Dec-07 21:00N 34°18' E 134°31'611.2
2017-Dec-07 20:28N 34°15' E 134°38'5 9.6
2017-Dec-07 19:57N 34°11' E 134°42'4 9.9
2017-Dec-07 19:30N 34°08' E 134°45'5 9.9
2017-Dec-07 19:00N 34°04' E 134°49'5 9.5
2017-Dec-07 18:28N 34°01' E 134°53'4 8.5
2017-Dec-07 18:00N 33°58' E 134°56'162 9.2
2017-Dec-07 00:25N 34°33' E 138°08'4 9.4
2017-Dec-06 23:58N 34°33' E 138°13'510.4
2017-Dec-06 23:30N 34°33' E 138°19'610.4
2017-Dec-06 22:58N 34°34' E 138°25'510.5
2017-Dec-06 22:30N 34°34' E 138°31'6 9.7
2017-Dec-06 21:52N 34°34' E 138°39'4 9.9
2017-Dec-06 21:29N 34°34' E 138°43'510.1
2017-Dec-06 21:00N 34°34' E 138°49'  
2017-Dec-04 10:30N 35°08' E 139°45'612.0
2017-Dec-04 10:00N 35°14' E 139°46'612.3
2017-Dec-04 09:30N 35°20' E 139°43'511.0
2017-Dec-04 09:00N 35°25' E 139°44'611.4
2017-Dec-04 08:30N 35°28' E 139°50'5 9.2
2017-Dec-04 08:00N 35°29' E 139°55'0 0.1
2017-Dec-04 07:30N 35°29' E 139°55'0 0.0
2017-Dec-04 07:00N 35°29' E 139°55'0 0.0
2017-Dec-04 06:30N 35°29' E 139°55'0 0.0
2017-Dec-04 06:00N 35°29' E 139°55'0 0.0
2017-Dec-04 05:30N 35°29' E 139°55'4 7.7
2017-Dec-04 05:00N 35°29' E 139°60'1 2.4
2017-Dec-04 04:30N 35°28' E 140°01'0 0.0
2017-Dec-04 03:59N 35°28' E 140°01'0 0.0
2017-Dec-04 03:30N 35°28' E 140°01'0 0.0
2017-Dec-04 03:00N 35°28' E 140°01'0 0.0
2017-Dec-04 02:30N 35°28' E 140°01'0 0.0
2017-Dec-04 02:00N 35°28' E 140°01'0 0.0
2017-Dec-04 01:30N 35°28' E 140°01'0 0.0
2017-Dec-04 01:00N 35°28' E 140°01'0 0.0
2017-Dec-04 00:30N 35°28' E 140°01'2 3.4
2017-Dec-04 00:00N 35°30' E 139°60'4 8.6
2017-Dec-03 23:30N 35°34' E 139°59'6 0.3
2017-Dec-02 23:28N 35°41' E 139°59'3 5.9
2017-Dec-02 23:00N 35°38' E 139°59'1 1.6
2017-Dec-02 22:30N 35°37' E 139°59'0 0.0
2017-Dec-02 22:00N 35°37' E 139°59'0 0.0
2017-Dec-02 21:29N 35°37' E 139°59'0 0.0
2017-Dec-02 21:00N 35°37' E 139°59'0 0.0
2017-Dec-02 20:30N 35°37' E 139°59'0 0.0
2017-Dec-02 20:00N 35°37' E 139°59'0 0.1
2017-Dec-02 19:30N 35°37' E 139°59'510.7
2017-Dec-02 19:00N 35°33' E 139°55'612.2
2017-Dec-02 18:30N 35°28' E 139°51'612.1
2017-Dec-02 18:01N 35°23' E 139°46'611.6
2017-Dec-02 17:30N 35°17' E 139°45'612.1
2017-Dec-02 17:00N 35°11' E 139°47'612.0
2017-Dec-02 16:30N 35°05' E 139°45'612.2
2017-Dec-02 16:00N 34°60' E 139°44'711.4
2017-Dec-02 15:23N 34°53' E 139°48'811.3
2017-Dec-02 14:39N 34°54' E 139°58'211.9
2017-Dec-02 14:29N 34°55' E 139°60'612.1
2017-Dec-02 14:00N 34°58' E 140°06'  

Dump ship's entire track history